Time;durP1;ratioP1;P1;durP2;ratioP2;P2;SDS_P1;SDS_P2;PMS_P1;PMS_P2;Temp;Humidity;BMP_temperature;BMP_pressure;BME280_temperature;BME280_humidity;BME280_pressure;Samples;Min_cycle;Max_cycle;Signal;HPM_P1;HPM_P2
2023/11/20 00:02:12;;;;;;;12.57;2.58;;;;;;;14.07;60.39;96975.16;4935750;28;20181;-81
2023/11/20 00:04:40;;;;;;;8.63;1.83;;;;;;;14.21;59.92;96984.78;4954191;28;20701;-83
2023/11/20 00:07:05;;;;;;;9.70;2.15;;;;;;;14.24;59.60;96984.25;4938821;28;20543;-82
2023/11/20 00:09:33;;;;;;;9.52;2.20;;;;;;;14.06;60.61;96984.88;4947506;28;20303;-81
2023/11/20 00:12:00;;;;;;;9.02;1.83;;;;;;;14.19;59.57;96986.88;4955742;28;20297;-80
2023/11/20 00:14:25;;;;;;;10.45;2.78;;;;;;;14.24;59.89;96967.75;4952537;28;20134;-81
2023/11/20 00:16:52;;;;;;;9.65;2.83;;;;;;;14.20;60.57;96969.34;4949491;28;20722;-82
2023/11/20 00:19:18;;;;;;;7.85;2.42;;;;;;;14.21;60.38;96970.91;4962185;28;20283;-80
2023/11/20 00:21:44;;;;;;;8.13;2.08;;;;;;;14.29;60.33;96969.53;4933056;28;20689;-81
2023/11/20 00:24:10;;;;;;;9.77;2.22;;;;;;;14.25;60.99;96969.31;4944016;28;20282;-81
2023/11/20 00:26:35;;;;;;;8.70;1.98;;;;;;;14.14;61.34;96976.44;4922862;28;20288;-80
2023/11/20 00:29:01;;;;;;;10.80;2.67;;;;;;;14.18;60.94;96971.44;4951089;28;20184;-80
2023/11/20 00:31:26;;;;;;;7.50;2.28;;;;;;;14.17;60.80;96980.34;4946519;28;20184;-80
2023/11/20 00:33:52;;;;;;;12.77;2.42;;;;;;;14.28;60.80;96981.84;4928548;28;20739;-81
2023/11/20 00:36:18;;;;;;;11.30;2.58;;;;;;;14.15;61.85;96972.00;4921051;28;20297;-80
2023/11/20 00:38:45;;;;;;;8.65;1.70;;;;;;;14.32;60.67;96974.22;4937951;28;20212;-80
2023/11/20 00:41:10;;;;;;;10.95;2.88;;;;;;;14.35;60.56;96981.56;4948942;28;20598;-80
2023/11/20 00:43:36;;;;;;;13.50;2.50;;;;;;;14.25;61.91;96974.53;4944675;28;20096;-80
2023/11/20 00:46:02;;;;;;;7.82;2.13;;;;;;;14.28;60.89;96975.84;4959870;28;20198;-80
2023/11/20 00:48:27;;;;;;;10.68;2.10;;;;;;;14.24;60.86;96981.63;4953346;28;20700;-81
2023/11/20 00:50:54;;;;;;;9.98;2.10;;;;;;;14.32;60.01;96969.75;4946392;28;20195;-80
2023/11/20 00:53:20;;;;;;;14.13;3.20;;;;;;;14.11;61.85;96969.13;4926201;28;20253;-81
2023/11/20 00:55:45;;;;;;;8.05;2.08;;;;;;;14.36;60.88;96985.72;4962058;28;20648;-80
2023/11/20 00:58:11;;;;;;;11.20;2.30;;;;;;;14.42;60.30;96990.66;4960474;28;20192;-81
2023/11/20 01:00:37;;;;;;;9.00;2.88;;;;;;;14.52;59.88;96996.88;4958013;28;20725;-81
2023/11/20 01:03:03;;;;;;;4.97;1.83;;;;;;;14.35;60.06;96984.94;4956517;28;20219;-80
2023/11/20 01:05:29;;;;;;;9.25;2.42;;;;;;;14.42;59.36;96980.16;4943993;28;20609;-79
2023/11/20 01:07:54;;;;;;;9.75;2.58;;;;;;;14.56;59.44;96984.78;4956116;28;20222;-80
2023/11/20 01:10:19;;;;;;;6.70;1.63;;;;;;;14.43;59.91;96979.13;4945159;28;20251;-80
2023/11/20 01:12:45;;;;;;;11.38;2.35;;;;;;;14.39;60.32;96983.34;4925721;28;20236;-80
2023/11/20 01:15:10;;;;;;;9.77;2.10;;;;;;;14.50;59.75;96986.69;4941685;28;20190;-80
2023/11/20 01:17:35;;;;;;;10.13;1.80;;;;;;;14.50;60.10;96985.91;4943081;28;20276;-80
2023/11/20 01:20:02;;;;;;;13.60;2.42;;;;;;;14.24;61.12;96986.09;4955262;28;20258;-79
2023/11/20 01:22:27;;;;;;;8.18;2.08;;;;;;;14.34;60.39;96974.75;4972259;28;20516;-80
2023/11/20 01:24:53;;;;;;;11.32;2.22;;;;;;;14.39;61.06;96982.56;4963209;28;20207;-80
2023/11/20 01:27:18;;;;;;;11.95;3.72;;;;;;;14.38;61.06;96987.03;4962154;28;20211;-80
2023/11/20 01:29:43;;;;;;;11.45;2.90;;;;;;;14.43;60.39;96979.13;4940869;28;20556;-81
2023/11/20 01:32:08;;;;;;;10.80;2.20;;;;;;;14.41;60.51;96981.25;4950917;28;20640;-81
2023/11/20 01:34:34;;;;;;;11.07;2.53;;;;;;;14.46;60.29;96987.50;4948878;28;20171;-82
2023/11/20 01:36:59;;;;;;;9.63;2.42;;;;;;;14.52;60.25;96989.81;4956314;28;20207;-81
2023/11/20 01:39:25;;;;;;;9.32;1.92;;;;;;;14.56;59.95;96992.66;4923773;28;20228;-81
2023/11/20 01:41:50;;;;;;;7.53;2.10;;;;;;;14.59;59.74;96987.66;4948573;28;20284;-80
2023/11/20 01:44:16;;;;;;;8.20;2.42;;;;;;;14.62;59.85;96986.34;4958413;28;20647;-80
2023/11/20 01:46:41;;;;;;;8.57;1.83;;;;;;;14.60;61.24;96986.63;4948928;28;20280;-80
2023/11/20 01:49:07;;;;;;;7.75;2.25;;;;;;;14.65;60.65;96987.63;4937677;28;20196;-80
2023/11/20 01:51:32;;;;;;;11.10;2.67;;;;;;;14.56;61.49;96992.66;4941905;28;20216;-80
2023/11/20 01:53:59;;;;;;;10.95;3.35;;;;;;;14.55;61.53;96980.63;4944235;28;20247;-80
2023/11/20 01:56:28;;;;;;;12.60;2.63;;;;;;;14.56;62.23;96982.16;4950093;28;20296;-80
2023/11/20 01:58:56;;;;;;;11.45;2.33;;;;;;;14.08;63.98;96972.28;4959756;28;20685;-80
2023/11/20 02:01:22;;;;;;;6.72;2.20;;;;;;;14.12;63.48;96962.84;4945441;28;20243;-80
2023/11/20 02:03:49;;;;;;;8.00;1.90;;;;;;;14.17;64.06;96975.91;4938380;28;20643;-80
2023/11/20 02:06:15;;;;;;;10.75;1.90;;;;;;;14.08;63.63;96967.06;4944668;28;20222;-80
2023/11/20 02:08:41;;;;;;;9.68;3.25;;;;;;;14.13;63.07;96968.88;4939712;28;20282;-80
2023/11/20 02:11:06;;;;;;;10.68;2.95;;;;;;;14.22;63.07;96982.94;4961615;28;20285;-79
2023/11/20 02:13:32;;;;;;;9.52;2.60;;;;;;;14.11;62.75;96965.75;4925472;28;20196;-80
2023/11/20 02:15:57;;;;;;;13.35;2.38;;;;;;;14.08;63.75;96972.28;4942795;28;20275;-80
2023/11/20 02:18:30;;;;;;;9.10;2.20;;;;;;;14.23;62.59;96969.56;4953565;28;20640;-81
2023/11/20 02:20:55;;;;;;;11.68;2.65;;;;;;;14.07;63.00;96973.34;4945170;28;20294;-80
2023/11/20 02:23:21;;;;;;;10.55;2.35;;;;;;;14.04;63.19;96968.66;4940952;28;20560;-79
2023/11/20 02:25:48;;;;;;;9.07;2.20;;;;;;;14.09;63.39;96971.25;4942466;28;20701;-80
2023/11/20 02:28:32;;;;;;;11.05;2.13;;;;;;;14.26;62.81;96973.50;4956691;28;20200;-80
2023/11/20 02:30:58;;;;;;;6.43;1.75;;;;;;;14.02;62.78;96948.00;4942144;28;20192;-79
2023/11/20 02:33:24;;;;;;;7.68;1.95;;;;;;;14.15;62.29;96951.81;4921933;28;20211;-80
2023/11/20 02:35:50;;;;;;;9.23;2.30;;;;;;;14.05;62.89;96957.91;4955102;28;20582;-80
2023/11/20 02:38:15;;;;;;;8.80;1.85;;;;;;;14.16;63.38;96952.63;4959713;28;20292;-80
2023/11/20 02:40:41;;;;;;;10.13;1.92;;;;;;;14.16;62.09;96947.38;4942566;28;20274;-81
2023/11/20 02:43:07;;;;;;;9.50;2.13;;;;;;;14.23;62.93;96958.31;4948642;28;20472;-80
2023/11/20 02:45:35;;;;;;;7.03;2.03;;;;;;;14.12;62.74;96954.19;4943266;28;20290;-81
2023/11/20 02:48:00;;;;;;;9.48;2.42;;;;;;;14.05;62.79;96944.84;4929214;28;20250;-80
2023/11/20 02:50:28;;;;;;;14.85;2.55;;;;;;;13.86;64.36;96947.31;4928822;28;20688;-80
2023/11/20 02:52:54;;;;;;;7.07;2.15;;;;;;;13.77;64.95;96935.06;4942193;28;20204;-80
2023/11/20 02:55:20;;;;;;;12.35;2.63;;;;;;;14.10;63.53;96943.22;4942984;28;20264;-80
2023/11/20 02:57:45;;;;;;;8.98;1.88;;;;;;;14.17;63.18;96939.25;4955366;28;20842;-80
2023/11/20 03:00:12;;;;;;;9.05;2.30;;;;;;;14.20;63.26;96935.28;4941714;28;20279;-80
2023/11/20 03:02:37;;;;;;;7.82;2.60;;;;;;;13.88;64.61;96935.78;4926376;28;20165;-80
2023/11/20 03:05:04;;;;;;;5.88;1.83;;;;;;;14.00;63.48;96931.78;4952778;28;20234;-80
2023/11/20 03:07:29;;;;;;;10.50;2.50;;;;;;;14.09;63.47;96934.59;4974122;28;20305;-80
2023/11/20 03:09:54;;;;;;;8.70;2.60;;;;;;;14.12;63.37;96935.88;4938194;28;20187;-80
2023/11/20 03:12:20;;;;;;;11.68;3.08;;;;;;;14.14;63.07;96937.19;4939973;28;20165;-80
2023/11/20 03:14:45;;;;;;;8.63;2.20;;;;;;;14.11;63.19;96935.09;4942804;28;20313;-80
2023/11/20 03:17:10;;;;;;;18.13;2.35;;;;;;;14.12;63.86;96928.00;4957996;28;20176;-80
2023/11/20 03:19:36;;;;;;;12.30;2.97;;;;;;;14.04;63.71;96932.78;4939155;28;20221;-80
2023/11/20 03:22:02;;;;;;;11.77;4.25;;;;;;;14.12;63.61;96925.41;4970559;28;20181;-80
2023/11/20 03:24:27;;;;;;;6.53;1.70;;;;;;;14.13;63.12;96932.97;4941016;28;20243;-80
2023/11/20 03:26:52;;;;;;;10.27;2.25;;;;;;;14.10;62.89;96923.03;4957361;28;20206;-80
2023/11/20 03:29:18;;;;;;;8.10;1.73;;;;;;;14.14;63.29;96931.16;4950453;28;20191;-79
2023/11/20 03:31:44;;;;;;;5.88;1.73;;;;;;;14.10;62.31;96924.91;4938982;28;20749;-80
2023/11/20 03:34:10;;;;;;;9.23;2.00;;;;;;;14.11;63.35;96929.09;4926598;28;20287;-80
2023/11/20 03:36:35;;;;;;;6.97;1.42;;;;;;;14.08;63.09;96919.16;4960756;28;20255;-80
2023/11/20 03:39:00;;;;;;;7.97;2.15;;;;;;;13.84;63.88;96915.38;4928522;28;20213;-80
2023/11/20 03:41:26;;;;;;;10.75;2.50;;;;;;;13.97;62.80;96911.38;4972874;28;20196;-79
2023/11/20 03:43:52;;;;;;;8.07;2.53;;;;;;;14.04;62.39;96911.84;4937640;28;20288;-80
2023/11/20 03:46:17;;;;;;;11.75;2.00;;;;;;;14.06;63.40;96911.56;4939594;28;20240;-81
2023/11/20 03:48:43;;;;;;;10.23;1.92;;;;;;;14.11;62.18;96913.38;4947532;28;20709;-80
2023/11/20 03:51:08;;;;;;;8.25;2.55;;;;;;;14.09;62.71;96915.50;4942780;28;20267;-80
2023/11/20 03:53:34;;;;;;;11.90;2.03;;;;;;;14.08;62.74;96921.78;4955911;28;20208;-80
2023/11/20 03:55:59;;;;;;;11.35;2.17;;;;;;;14.01;62.76;96920.22;4948288;28;20655;-81
2023/11/20 03:58:25;;;;;;;9.15;2.10;;;;;;;14.07;62.96;96914.97;4955659;28;20289;-81
2023/11/20 04:00:50;;;;;;;8.68;2.17;;;;;;;13.81;63.33;96904.66;4954456;28;20196;-80
2023/11/20 04:03:15;;;;;;;12.18;2.45;;;;;;;13.83;63.29;96919.06;4946987;28;20288;-78
2023/11/20 04:05:41;;;;;;;9.73;2.25;;;;;;;13.70;63.83;96918.88;4957752;28;20644;-80
2023/11/20 04:08:07;;;;;;;9.68;1.85;;;;;;;14.02;62.52;96924.44;4933145;28;20282;-81
2023/11/20 04:10:32;;;;;;;10.10;2.00;;;;;;;14.04;61.75;96919.69;4927713;28;20193;-80
2023/11/20 04:12:58;;;;;;;7.50;1.88;;;;;;;13.81;63.08;96915.94;4929503;28;20203;-80
2023/11/20 04:15:24;;;;;;;12.32;2.50;;;;;;;13.64;63.20;96921.53;4939429;28;20632;-80
2023/11/20 04:17:49;;;;;;;11.23;2.22;;;;;;;13.88;63.27;96913.00;4959236;28;20196;-80
2023/11/20 04:20:14;;;;;;;7.68;1.98;;;;;;;13.98;62.65;96920.81;4925063;28;20216;-80
2023/11/20 04:22:40;;;;;;;11.73;2.20;;;;;;;14.09;61.93;96920.72;4952391;28;20698;-81
2023/11/20 04:25:06;;;;;;;8.48;2.30;;;;;;;13.97;62.16;96910.59;4932853;28;20770;-80
2023/11/20 04:27:31;;;;;;;11.02;1.80;;;;;;;13.80;63.15;96921.44;4939407;28;20206;-80
2023/11/20 04:30:00;;;;;;;11.35;3.35;;;;;;;13.67;63.48;96914.94;4943118;28;20652;-80
2023/11/20 04:32:25;;;;;;;12.68;2.50;;;;;;;13.82;63.76;96924.56;4957946;28;20219;-80
2023/11/20 04:34:51;;;;;;;6.43;2.00;;;;;;;13.65;64.28;96914.44;4936809;28;20157;-79
2023/11/20 04:37:17;;;;;;;7.32;1.92;;;;;;;13.73;64.57;96920.97;4929481;28;20292;-80
2023/11/20 04:39:43;;;;;;;10.80;2.60;;;;;;;13.53;64.71;96924.44;4940340;28;20206;-79
2023/11/20 04:42:08;;;;;;;5.43;1.42;;;;;;;13.72;64.44;96928.00;4935931;28;20390;-80
2023/11/20 04:44:33;;;;;;;8.88;2.25;;;;;;;13.54;64.47;96915.53;4932294;28;20328;-80
2023/11/20 04:46:59;;;;;;;10.10;2.58;;;;;;;13.79;63.26;96912.78;4957150;28;20206;-80
2023/11/20 04:49:25;;;;;;;9.05;1.75;;;;;;;13.72;63.71;96927.22;4948329;28;20212;-79
2023/11/20 04:51:52;;;;;;;7.95;2.70;;;;;;;13.63;64.65;96917.31;4944864;28;20328;-79
2023/11/20 04:54:18;;;;;;;9.85;1.73;;;;;;;13.87;62.98;96919.28;4938280;28;20162;-79
2023/11/20 04:56:46;;;;;;;8.95;1.75;;;;;;;13.81;63.14;96920.38;4927964;28;20656;-79
2023/11/20 04:59:11;;;;;;;8.68;1.63;;;;;;;13.79;63.03;96906.78;4938604;28;20317;-79
2023/11/20 05:01:37;;;;;;;5.70;1.40;;;;;;;13.74;63.59;96917.28;4935060;28;20277;-80
2023/11/20 05:04:03;;;;;;;4.68;1.13;;;;;;;13.65;63.75;96922.28;4971770;28;20207;-79
2023/11/20 05:06:30;;;;;;;6.22;1.42;;;;;;;13.70;64.29;96916.25;4940721;28;20164;-79
2023/11/20 05:08:56;;;;;;;7.30;1.45;;;;;;;13.75;63.51;96911.00;4919389;28;20240;-79
2023/11/20 05:11:22;;;;;;;6.88;1.38;;;;;;;13.83;62.94;96916.44;4942696;28;20220;-80
2023/11/20 05:13:47;;;;;;;6.25;1.50;;;;;;;13.89;62.98;96913.78;4955633;28;20168;-80
2023/11/20 05:16:13;;;;;;;8.10;1.52;;;;;;;13.86;63.16;96915.09;4936560;28;20195;-81
2023/11/20 05:18:38;;;;;;;8.05;1.38;;;;;;;13.79;63.33;96917.25;4962321;28;20210;-81
2023/11/20 05:21:05;;;;;;;7.57;1.50;;;;;;;13.68;64.00;96912.06;4938482;28;20273;-80
2023/11/20 05:23:30;;;;;;;6.90;1.27;;;;;;;13.68;64.23;96901.59;4928680;28;20683;-79
2023/11/20 05:25:55;;;;;;;5.63;1.52;;;;;;;13.73;63.42;96910.50;4949867;28;20201;-80
2023/11/20 05:28:21;;;;;;;4.97;1.40;;;;;;;13.49;64.50;96903.28;4953947;28;20278;-80
2023/11/20 05:30:46;;;;;;;6.78;1.40;;;;;;;13.60;65.43;96904.00;4939249;28;20186;-79
2023/11/20 05:33:12;;;;;;;7.72;1.63;;;;;;;13.68;64.71;96913.91;4957061;28;20192;-80
2023/11/20 05:35:40;;;;;;;5.20;1.17;;;;;;;13.51;65.17;96895.94;4959573;28;20699;-80
2023/11/20 05:38:06;;;;;;;4.10;1.35;;;;;;;13.50;65.55;96912.69;4958132;28;20352;-80
2023/11/20 05:40:32;;;;;;;6.75;1.00;;;;;;;13.60;64.90;96917.84;4948775;28;20275;-80
2023/11/20 05:42:58;;;;;;;3.80;0.90;;;;;;;13.51;65.67;96926.56;4942405;28;20173;-80
2023/11/20 05:45:23;;;;;;;4.78;1.38;;;;;;;13.51;65.63;96911.63;4957165;28;20184;-80
2023/11/20 05:47:48;;;;;;;5.43;1.15;;;;;;;13.53;65.21;96924.44;4954098;28;20225;-79
2023/11/20 05:50:15;;;;;;;4.90;1.13;;;;;;;13.46;65.70;96915.06;4936158;28;20196;-80
2023/11/20 05:52:40;;;;;;;3.40;1.58;;;;;;;13.52;65.66;96917.66;4946049;28;20365;-80
2023/11/20 05:55:06;;;;;;;5.68;1.73;;;;;;;13.50;65.67;96923.13;4935527;28;20429;-80
2023/11/20 05:57:31;;;;;;;6.15;1.02;;;;;;;13.63;64.55;96927.03;4927043;28;20208;-80
2023/11/20 05:59:57;;;;;;;5.05;1.15;;;;;;;13.55;65.07;96923.13;4944277;28;20334;-80
2023/11/20 06:02:22;;;;;;;5.45;1.30;;;;;;;13.51;65.34;96913.47;4954609;28;20617;-80
2023/11/20 06:04:47;;;;;;;2.53;0.85;;;;;;;13.52;66.32;96917.66;4937086;28;20586;-80
2023/11/20 06:07:14;;;;;;;4.38;0.95;;;;;;;13.49;65.09;96914.53;4926438;28;20291;-80
2023/11/20 06:09:40;;;;;;;2.28;0.82;;;;;;;13.49;65.75;96918.97;4944524;28;20311;-82
2023/11/20 06:12:06;;;;;;;2.47;0.95;;;;;;;13.44;66.01;96919.00;4939334;28;20282;-80
2023/11/20 06:14:32;;;;;;;2.95;1.35;;;;;;;13.41;66.07;96917.69;4942001;28;20207;-81
2023/11/20 06:16:58;;;;;;;4.35;0.90;;;;;;;13.51;64.70;96916.09;4946611;28;20280;-80
2023/11/20 06:19:27;;;;;;;4.43;0.88;;;;;;;13.51;65.38;96921.34;4934611;28;20169;-81
2023/11/20 06:21:53;;;;;;;3.35;1.17;;;;;;;13.48;65.23;96918.19;4960898;28;20207;-80
2023/11/20 06:24:19;;;;;;;4.75;1.20;;;;;;;13.40;65.56;96920.56;4937243;28;20231;-79
2023/11/20 06:26:44;;;;;;;4.38;1.70;;;;;;;13.51;64.63;96911.63;4961733;28;20184;-80
2023/11/20 06:29:10;;;;;;;3.42;1.42;;;;;;;13.47;65.07;96911.41;4923100;28;20315;-80
2023/11/20 06:31:36;;;;;;;5.13;1.40;;;;;;;13.46;65.04;96906.44;4946501;28;20192;-80
2023/11/20 06:34:01;;;;;;;5.25;1.30;;;;;;;13.40;64.64;96910.91;4936502;28;20234;-80
2023/11/20 06:36:27;;;;;;;6.47;1.88;;;;;;;13.35;65.17;96903.09;4927023;28;20202;-80
2023/11/20 06:38:53;;;;;;;4.07;1.45;;;;;;;13.26;66.22;96915.91;4942099;28;20216;-80
2023/11/20 06:41:19;;;;;;;5.45;1.30;;;;;;;13.12;65.42;96909.69;4930700;28;20269;-79
2023/11/20 06:43:44;;;;;;;7.10;1.92;;;;;;;13.27;66.53;96906.22;4944566;28;20188;-80
2023/11/20 06:46:17;;;;;;;4.68;1.80;;;;;;;13.16;65.78;96905.50;4962705;28;20183;-80
2023/11/20 06:48:42;;;;;;;4.20;1.25;;;;;;;13.18;65.48;96908.63;4923654;28;20281;-79
2023/11/20 06:51:11;;;;;;;7.03;1.10;;;;;;;13.16;65.17;96915.94;4941553;28;20648;-80
2023/11/20 06:53:36;;;;;;;9.43;1.80;;;;;;;13.19;65.43;96909.41;4955072;28;20204;-80
2023/11/20 06:56:03;;;;;;;3.95;1.15;;;;;;;13.13;66.01;96918.31;4943185;28;20193;-79
2023/11/20 06:58:28;;;;;;;4.07;1.00;;;;;;;13.09;65.74;96920.66;4927544;28;20368;-80
2023/11/20 07:00:54;;;;;;;6.38;1.60;;;;;;;13.02;65.88;96914.94;4945160;28;20709;-80
2023/11/20 07:03:20;;;;;;;4.93;1.42;;;;;;;13.17;65.28;96912.28;4929600;28;20192;-80
2023/11/20 07:05:48;;;;;;;4.28;1.70;;;;;;;13.15;65.59;96911.00;4943927;28;20196;-80
2023/11/20 07:08:15;;;;;;;8.07;1.85;;;;;;;13.08;66.50;96911.28;4937884;28;20721;-80
2023/11/20 07:10:40;;;;;;;4.38;1.60;;;;;;;13.10;66.25;96914.38;4961603;28;20200;-81
2023/11/20 07:13:06;;;;;;;4.57;1.30;;;;;;;12.99;66.32;96921.50;4960623;28;20189;-80
2023/11/20 07:15:32;;;;;;;5.75;2.10;;;;;;;13.11;66.25;96929.81;4942164;28;20196;-80
2023/11/20 07:17:59;;;;;;;3.58;1.10;;;;;;;13.06;65.59;96919.38;4924232;28;20134;-80
2023/11/20 07:20:24;;;;;;;6.88;1.25;;;;;;;13.05;65.84;96914.41;4956351;28;20231;-80
2023/11/20 07:22:50;;;;;;;6.57;1.15;;;;;;;13.15;65.59;96926.66;4934594;28;20294;-81
2023/11/20 07:25:15;;;;;;;1.77;1.00;;;;;;;13.21;65.59;96931.63;4922788;28;20302;-81
2023/11/20 07:27:40;;;;;;;5.07;1.17;;;;;;;13.21;65.54;96933.44;4939298;28;20211;-81
2023/11/20 07:30:09;;;;;;;4.85;1.30;;;;;;;13.27;65.15;96938.38;4948587;28;20524;-82
2023/11/20 07:32:35;;;;;;;4.90;1.10;;;;;;;13.34;65.57;96937.34;4937122;28;20203;-81
2023/11/20 07:35:04;;;;;;;5.90;1.35;;;;;;;13.30;65.25;96943.09;4934214;28;20244;-80
2023/11/20 07:37:31;;;;;;;6.53;2.15;;;;;;;13.36;65.21;96945.72;4925951;28;20200;-80
2023/11/20 07:39:57;;;;;;;6.40;2.00;;;;;;;13.25;65.48;96947.56;4957131;28;20561;-80
2023/11/20 07:42:22;;;;;;;6.82;1.98;;;;;;;13.21;65.58;96949.13;4945276;28;20662;-80
2023/11/20 07:44:48;;;;;;;3.28;1.52;;;;;;;13.24;66.26;96951.22;4954948;28;20262;-80
2023/11/20 07:47:13;;;;;;;4.95;1.38;;;;;;;13.34;64.96;96951.19;4950484;28;20176;-80
2023/11/20 07:49:39;;;;;;;9.32;1.52;;;;;;;13.38;64.97;96954.06;4936826;28;20278;-80
2023/11/20 07:52:05;;;;;;;8.05;1.33;;;;;;;13.41;64.90;96953.53;4939697;28;20275;-79
2023/11/20 07:54:31;;;;;;;3.75;1.50;;;;;;;13.30;64.81;96942.31;4941023;28;20686;-80
2023/11/20 07:56:56;;;;;;;5.05;1.58;;;;;;;13.31;65.31;96946.47;4939864;28;20153;-80
2023/11/20 07:59:23;;;;;;;4.70;1.30;;;;;;;13.29;64.81;96953.81;4921772;28;20188;-80
2023/11/20 08:01:49;;;;;;;8.75;1.58;;;;;;;13.35;64.66;96952.78;4943171;28;20237;-80
2023/11/20 08:04:16;;;;;;;4.68;1.45;;;;;;;13.41;64.43;96954.31;4961698;28;20724;-80
2023/11/20 08:06:42;;;;;;;3.92;0.88;;;;;;;13.37;65.19;96948.06;4931041;28;20637;-80
2023/11/20 08:09:09;;;;;;;6.05;1.35;;;;;;;13.24;65.14;96949.38;4939451;28;20188;-80
2023/11/20 08:11:34;;;;;;;3.50;1.13;;;;;;;13.26;64.62;96949.91;4928612;28;20281;-80
2023/11/20 08:14:00;;;;;;;2.80;1.13;;;;;;;13.33;65.66;96951.47;4944351;28;20234;-80
2023/11/20 08:16:25;;;;;;;2.55;1.00;;;;;;;13.41;64.92;96937.84;4951889;28;20282;-80
2023/11/20 08:18:52;;;;;;;4.95;1.88;;;;;;;13.45;64.04;96946.69;4944183;28;20640;-80
2023/11/20 08:21:18;;;;;;;1.75;0.70;;;;;;;13.45;64.21;96938.84;4960095;28;20131;-80
2023/11/20 08:23:43;;;;;;;4.30;1.13;;;;;;;13.47;64.54;96940.16;4946108;28;20242;-80
2023/11/20 08:26:09;;;;;;;5.88;1.35;;;;;;;13.57;64.98;96941.16;4933384;28;20203;-80
2023/11/20 08:28:34;;;;;;;3.55;1.00;;;;;;;13.46;64.11;96935.19;4939891;28;20200;-81
2023/11/20 08:30:59;;;;;;;2.97;1.13;;;;;;;13.49;64.01;96937.28;4948308;28;20642;-80
2023/11/20 08:33:25;;;;;;;3.60;0.90;;;;;;;13.48;64.48;96933.88;4951431;28;20199;-80
2023/11/20 08:35:50;;;;;;;2.63;0.57;;;;;;;13.49;64.60;96932.06;4949589;28;20408;-80
2023/11/20 08:38:16;;;;;;;1.92;0.68;;;;;;;13.42;65.45;96931.56;4925237;28;20281;-80
2023/11/20 08:40:41;;;;;;;1.90;0.52;;;;;;;13.45;64.54;96933.63;4937885;28;20031;-80
2023/11/20 08:43:06;;;;;;;2.10;0.75;;;;;;;13.25;65.93;96930.03;4944897;28;20025;-80
2023/11/20 08:45:35;;;;;;;3.30;1.38;;;;;;;13.36;64.96;96925.56;4923716;28;20674;-80
2023/11/20 08:48:03;;;;;;;3.58;1.67;;;;;;;13.28;65.24;96928.69;4949312;28;20736;-80
2023/11/20 08:50:28;;;;;;;3.75;1.00;;;;;;;13.29;65.32;96917.97;4941181;28;20650;-81
2023/11/20 08:52:53;;;;;;;4.07;0.90;;;;;;;13.31;65.89;96922.94;4949282;28;20040;-82
2023/11/20 08:55:19;;;;;;;3.50;0.95;;;;;;;13.20;66.19;96922.19;4955831;28;20594;-80
2023/11/20 08:57:44;;;;;;;2.45;1.05;;;;;;;13.35;65.21;96929.25;4969780;28;20472;-81
2023/11/20 09:00:14;;;;;;;2.35;0.73;;;;;;;13.16;65.38;96930.84;4956696;28;20799;-82
2023/11/20 09:02:41;;;;;;;2.75;1.10;;;;;;;13.20;64.79;96932.66;4931801;28;20025;-80
2023/11/20 09:05:08;;;;;;;3.75;0.85;;;;;;;13.41;64.26;96922.91;4982695;28;20104;-81
2023/11/20 09:07:34;;;;;;;3.92;1.20;;;;;;;13.46;64.67;96935.97;4944785;28;20187;-82
2023/11/20 09:09:59;;;;;;;3.72;1.50;;;;;;;13.43;64.72;96926.03;4936257;28;20710;-81
2023/11/20 09:12:25;;;;;;;3.33;0.82;;;;;;;13.44;64.98;96932.84;4963701;28;20219;-81
2023/11/20 09:14:50;;;;;;;3.78;0.85;;;;;;;13.46;65.00;96930.75;4948677;28;20166;-81
2023/11/20 09:17:16;;;;;;;4.32;1.10;;;;;;;13.57;64.09;96944.59;4925189;28;20275;-81
2023/11/20 09:19:41;;;;;;;3.67;1.00;;;;;;;13.46;64.53;96950.91;4952029;28;20557;-80
2023/11/20 09:22:06;;;;;;;4.63;1.60;;;;;;;13.49;64.10;96939.91;4934348;28;20262;-81
2023/11/20 09:24:32;;;;;;;4.63;1.13;;;;;;;13.46;64.77;96935.19;4945423;28;20191;-82
2023/11/20 09:26:58;;;;;;;4.93;1.60;;;;;;;13.51;64.31;96931.78;4931978;28;20569;-81
2023/11/20 09:29:24;;;;;;;6.28;1.25;;;;;;;13.59;63.92;96942.47;4948642;28;20277;-81
2023/11/20 09:31:53;;;;;;;3.70;1.33;;;;;;;13.78;64.09;96936.63;4947141;28;20323;-81
2023/11/20 09:34:19;;;;;;;4.25;1.10;;;;;;;13.75;64.62;96934.53;4958360;28;20241;-81
2023/11/20 09:36:44;;;;;;;3.53;1.08;;;;;;;13.77;64.42;96925.34;4931946;28;20656;-81
2023/11/20 09:39:13;;;;;;;1.42;0.73;;;;;;;13.90;63.61;96942.31;4952046;28;20760;-82
2023/11/20 09:41:42;;;;;;;5.88;1.23;;;;;;;13.82;63.51;96938.41;4924670;28;20271;-80
2023/11/20 09:44:07;;;;;;;3.72;0.90;;;;;;;13.81;63.38;96931.63;4931282;28;20271;-80
2023/11/20 09:46:37;;;;;;;2.97;1.15;;;;;;;13.82;64.04;96933.19;4956209;28;20295;-81
2023/11/20 09:49:04;;;;;;;3.35;0.82;;;;;;;13.76;64.89;96928.25;4930902;28;20208;-80
2023/11/20 09:51:38;;;;;;;4.45;1.55;;;;;;;13.77;64.09;96927.19;4949274;28;20203;-81
2023/11/20 09:54:08;;;;;;;2.80;0.80;;;;;;;13.74;64.31;96920.66;4956676;28;20278;-81
2023/11/20 09:56:36;;;;;;;2.95;1.73;;;;;;;13.73;63.63;96923.56;4946175;28;20281;-81
2023/11/20 09:59:07;;;;;;;4.03;1.27;;;;;;;13.80;65.22;96908.34;4934337;28;20368;-80
2023/11/20 10:01:33;;;;;;;4.28;1.10;;;;;;;13.82;63.54;96914.09;4950261;28;20298;-80
2023/11/20 10:03:59;;;;;;;3.72;1.27;;;;;;;13.93;63.75;96910.38;4945186;28;20426;-79
2023/11/20 10:06:27;;;;;;;4.70;1.35;;;;;;;14.03;62.65;96912.91;4941613;28;20250;-80
2023/11/20 10:08:55;;;;;;;3.47;1.00;;;;;;;13.97;62.62;96914.00;4947893;28;20205;-80
2023/11/20 10:11:23;;;;;;;3.40;0.80;;;;;;;14.00;61.50;96916.06;4956913;28;20297;-80
2023/11/20 10:13:49;;;;;;;5.22;1.23;;;;;;;13.92;62.53;96914.03;4948084;28;20280;-80
2023/11/20 10:16:22;;;;;;;4.68;0.85;;;;;;;14.00;62.36;96915.25;4932599;28;20290;-80
2023/11/20 10:18:48;;;;;;;4.18;1.38;;;;;;;13.68;64.12;96914.69;4937698;28;20296;-80
2023/11/20 10:21:13;;;;;;;3.30;0.90;;;;;;;13.79;62.77;96914.63;4967433;28;20710;-80
2023/11/20 10:23:39;;;;;;;8.93;1.00;;;;;;;13.58;63.32;96896.44;4942750;28;20273;-81
2023/11/20 10:26:07;;;;;;;1.65;0.77;;;;;;;13.84;62.01;96904.13;4954215;28;20274;-81
2023/11/20 10:28:37;;;;;;;3.75;0.80;;;;;;;13.67;62.01;96907.91;4949766;28;20753;-81
2023/11/20 10:31:06;;;;;;;3.22;0.90;;;;;;;13.70;62.51;96893.47;4946531;28;20257;-81
2023/11/20 10:33:33;;;;;;;3.10;1.25;;;;;;;13.88;62.29;96893.88;4965175;28;20734;-81
2023/11/20 10:36:10;;;;;;;3.25;0.80;;;;;;;13.98;62.13;96892.00;4934778;28;20191;-80
2023/11/20 10:38:36;;;;;;;4.70;0.80;;;;;;;13.79;62.55;96898.91;4934188;28;20579;-81
2023/11/20 10:41:03;;;;;;;2.40;0.80;;;;;;;13.73;63.19;96881.72;4942124;28;20252;-80
2023/11/20 10:43:30;;;;;;;4.38;0.98;;;;;;;13.68;62.54;96885.91;4926199;28;20241;-81
2023/11/20 10:45:56;;;;;;;4.53;1.05;;;;;;;13.64;62.52;96879.66;4930711;28;20669;-81
2023/11/20 10:48:22;;;;;;;2.70;0.60;;;;;;;13.70;62.21;96874.41;4947450;28;20173;-79
2023/11/20 10:50:49;;;;;;;3.38;0.68;;;;;;;13.82;62.57;96872.22;4959278;28;20195;-80
2023/11/20 10:53:17;;;;;;;2.33;0.70;;;;;;;13.90;62.44;96861.19;4938975;28;20717;-80
2023/11/20 10:55:50;;;;;;;4.20;1.00;;;;;;;13.95;62.83;96869.00;4962473;28;20301;-80
2023/11/20 10:58:18;;;;;;;1.73;0.60;;;;;;;13.92;62.11;96848.59;4964516;28;20213;-81
2023/11/20 11:00:45;;;;;;;3.80;1.40;;;;;;;13.83;62.42;96856.25;4949231;28;20173;-80
2023/11/20 11:03:11;;;;;;;2.53;0.55;;;;;;;13.97;62.83;96855.63;4949696;28;20640;-80
2023/11/20 11:05:39;;;;;;;1.70;0.60;;;;;;;13.82;63.11;96854.66;4943586;28;20342;-81
2023/11/20 11:08:14;;;;;;;2.85;0.60;;;;;;;13.80;63.61;96846.31;4950416;28;20519;-80
2023/11/20 11:10:40;;;;;;;1.33;0.40;;;;;;;13.67;64.47;96842.50;4940284;28;20653;-81
2023/11/20 11:13:10;;;;;;;1.77;0.52;;;;;;;13.51;64.30;96842.88;4938503;28;20681;-81
2023/11/20 11:15:36;;;;;;;1.90;0.65;;;;;;;13.45;64.36;96834.25;4938494;28;20652;-81
2023/11/20 11:18:06;;;;;;;1.58;0.45;;;;;;;13.63;64.60;96846.69;4952521;28;20539;-81
2023/11/20 11:20:49;;;;;;;2.42;0.85;;;;;;;13.72;64.25;96830.41;4925329;28;20199;-81
2023/11/20 11:23:24;;;;;;;3.85;0.77;;;;;;;13.45;64.88;96829.81;4948932;28;20200;-81
2023/11/20 11:26:15;;;;;;;0.93;0.50;;;;;;;13.68;63.36;96836.19;4953213;28;20279;-81
2023/11/20 11:28:44;;;;;;;2.60;0.57;;;;;;;13.69;65.03;96829.13;4958239;28;20631;-81